TOM1257 SAWH-SCCI
Flight info
| Callsign | TOM1257 |
|---|---|
| Flight time | 0h 36m |
| Altitude | 24000 |
| Route | USU2B ROMIV G550 ALMIR DCT SIMIR DCT VAPIL |
| Aircraft | B788/H-SDE1E2E3FGHIJ2J3J4J5M1RWXY/LB1D1 |
Departure
| Time | 2026-05-07 18:19 |
|---|---|
| Airport | Ushuaia - Malvinas Argentinas International Airport (SAWH) |
Arrival
| Time | 2026-05-07 18:56 |
|---|---|
| Airport | President Carlos Ibáñez International Airport (SCCI) |
| Time | Latitude | Longitude | Altitude | Speed | Heading |
|---|---|---|---|---|---|
| 2026-05-07 17:59 | -54.84038 | -68.31177 | 85 ft | 0 kts | 356° |
| 2026-05-07 18:13 | -54.84043 | -68.31177 | 83 ft | 2 kts | 356° |
| 2026-05-07 18:13 | -54.84060 | -68.31173 | 87 ft | 2 kts | 350° |
| 2026-05-07 18:14 | -54.84075 | -68.31163 | 85 ft | 2 kts | 330° |
| 2026-05-07 18:14 | -54.84085 | -68.31140 | 87 ft | 2 kts | 294° |
| 2026-05-07 18:14 | -54.84089 | -68.31112 | 86 ft | 2 kts | 275° |
| 2026-05-07 18:14 | -54.84089 | -68.31095 | 87 ft | 1 kts | 270° |
| 2026-05-07 18:15 | -54.84089 | -68.31086 | 88 ft | 0 kts | 269° |
| 2026-05-07 18:16 | -54.84089 | -68.31100 | 85 ft | 3 kts | 266° |
| 2026-05-07 18:16 | -54.84091 | -68.31153 | 87 ft | 6 kts | 266° |
| 2026-05-07 18:17 | -54.84095 | -68.31241 | 87 ft | 9 kts | 265° |
| 2026-05-07 18:17 | -54.84105 | -68.31301 | 86 ft | 2 kts | 227° |
| 2026-05-07 18:17 | -54.84133 | -68.31326 | 84 ft | 6 kts | 189° |
| 2026-05-07 18:17 | -54.84226 | -68.31326 | 71 ft | 20 kts | 178° |
| 2026-05-07 18:18 | -54.84386 | -68.31278 | 60 ft | 18 kts | 135° |
| 2026-05-07 18:18 | -54.84396 | -68.31223 | 60 ft | 1 kts | 84° |
| 2026-05-07 18:18 | -54.84395 | -68.31201 | 61 ft | 4 kts | 84° |
| 2026-05-07 18:18 | -54.84389 | -68.31094 | 66 ft | 17 kts | 85° |
| 2026-05-07 18:19 | -54.84377 | -68.30762 | 68 ft | 44 kts | 86° |
| 2026-05-07 18:19 | -54.84341 | -68.29810 | 65 ft | 115 kts | 86° |
| 2026-05-07 18:19 | -54.84272 | -68.28118 | 425 ft | 147 kts | 79° |
| 2026-05-07 18:19 | -54.84215 | -68.26330 | 1321 ft | 152 kts | 88° |
| 2026-05-07 18:20 | -54.84540 | -68.24438 | 2064 ft | 176 kts | 114° |
| 2026-05-07 18:20 | -54.85021 | -68.22341 | 2659 ft | 203 kts | 111° |
| 2026-05-07 18:20 | -54.85485 | -68.19807 | 3233 ft | 230 kts | 107° |
| 2026-05-07 18:20 | -54.85920 | -68.17151 | 4217 ft | 232 kts | 107° |
| 2026-05-07 18:21 | -54.86375 | -68.14436 | 5283 ft | 236 kts | 107° |
| 2026-05-07 18:21 | -54.86852 | -68.11647 | 6254 ft | 243 kts | 107° |
| 2026-05-07 18:21 | -54.87339 | -68.08793 | 6950 ft | 261 kts | 107° |
| 2026-05-07 18:21 | -54.87868 | -68.05664 | 7812 ft | 270 kts | 107° |
| 2026-05-07 18:22 | -54.88401 | -68.02505 | 8833 ft | 276 kts | 108° |
| 2026-05-07 18:22 | -54.88764 | -68.00350 | 9496 ft | 279 kts | 108° |
| 2026-05-07 18:22 | -54.89513 | -67.95917 | 10477 ft | 299 kts | 108° |
| 2026-05-07 18:22 | -54.90121 | -67.92311 | 10750 ft | 328 kts | 107° |
| 2026-05-07 18:23 | -54.90822 | -67.88366 | 10978 ft | 355 kts | 113° |
| 2026-05-07 18:23 | -54.92210 | -67.84807 | 11769 ft | 358 kts | 136° |
| 2026-05-07 18:23 | -54.94250 | -67.82332 | 12589 ft | 361 kts | 159° |
| 2026-05-07 18:23 | -54.96686 | -67.81415 | 13434 ft | 363 kts | 182° |
| 2026-05-07 18:24 | -54.99158 | -67.82169 | 14266 ft | 362 kts | 204° |
| 2026-05-07 18:24 | -55.01286 | -67.84470 | 15029 ft | 362 kts | 226° |
| 2026-05-07 18:24 | -55.02779 | -67.87993 | 15793 ft | 361 kts | 247° |
| 2026-05-07 18:24 | -55.03425 | -67.92174 | 16564 ft | 362 kts | 267° |
| 2026-05-07 18:25 | -55.03176 | -67.96502 | 17300 ft | 365 kts | 287° |
| 2026-05-07 18:25 | -55.02041 | -68.00499 | 18071 ft | 368 kts | 307° |
| 2026-05-07 18:25 | -55.00218 | -68.03662 | 18763 ft | 374 kts | 320° |
| 2026-05-07 18:25 | -54.98125 | -68.06314 | 19491 ft | 374 kts | 324° |
| 2026-05-07 18:26 | -54.96013 | -68.08928 | 20218 ft | 374 kts | 322° |
| 2026-05-07 18:26 | -54.93995 | -68.11906 | 20947 ft | 374 kts | 315° |
| 2026-05-07 18:26 | -54.92181 | -68.15060 | 21662 ft | 374 kts | 314° |
| 2026-05-07 18:26 | -54.90291 | -68.18232 | 22354 ft | 375 kts | 317° |
| 2026-05-07 18:27 | -54.88348 | -68.21223 | 23019 ft | 376 kts | 318° |
| 2026-05-07 18:27 | -54.86382 | -68.24259 | 23709 ft | 376 kts | 317° |
| 2026-05-07 18:27 | -54.84462 | -68.27338 | 23998 ft | 385 kts | 316° |
| 2026-05-07 18:27 | -54.83197 | -68.29546 | 24003 ft | 386 kts | 311° |
| 2026-05-07 18:28 | -54.80843 | -68.34139 | 24034 ft | 378 kts | 311° |
| 2026-05-07 18:28 | -54.79075 | -68.37537 | 24145 ft | 378 kts | 311° |
| 2026-05-07 18:28 | -54.77305 | -68.40932 | 24213 ft | 380 kts | 311° |
| 2026-05-07 18:28 | -54.75535 | -68.44338 | 24208 ft | 380 kts | 311° |
| 2026-05-07 18:29 | -54.73782 | -68.47709 | 24208 ft | 379 kts | 311° |
| 2026-05-07 18:29 | -54.72007 | -68.51112 | 24207 ft | 379 kts | 311° |
| 2026-05-07 18:29 | -54.70252 | -68.54468 | 24207 ft | 378 kts | 311° |
| 2026-05-07 18:29 | -54.68484 | -68.57848 | 24205 ft | 378 kts | 311° |
| 2026-05-07 18:30 | -54.66708 | -68.61226 | 24203 ft | 378 kts | 313° |
| 2026-05-07 18:30 | -54.64881 | -68.64436 | 24207 ft | 378 kts | 312° |
| 2026-05-07 18:30 | -54.63108 | -68.67812 | 24207 ft | 378 kts | 311° |
| 2026-05-07 18:30 | -54.61337 | -68.71157 | 24204 ft | 379 kts | 313° |
| 2026-05-07 18:31 | -54.59505 | -68.74465 | 24200 ft | 379 kts | 313° |
| 2026-05-07 18:31 | -54.57687 | -68.77734 | 24200 ft | 379 kts | 313° |
| 2026-05-07 18:31 | -54.55868 | -68.81067 | 24203 ft | 379 kts | 313° |
| 2026-05-07 18:31 | -54.54086 | -68.84341 | 24195 ft | 379 kts | 313° |
| 2026-05-07 18:32 | -54.52258 | -68.87663 | 24197 ft | 379 kts | 313° |
| 2026-05-07 18:32 | -54.50433 | -68.90966 | 24197 ft | 379 kts | 313° |
| 2026-05-07 18:32 | -54.48639 | -68.94222 | 24194 ft | 379 kts | 313° |
| 2026-05-07 18:32 | -54.46819 | -68.97525 | 24195 ft | 379 kts | 313° |
| 2026-05-07 18:33 | -54.45006 | -69.00808 | 24193 ft | 379 kts | 313° |
| 2026-05-07 18:33 | -54.43189 | -69.04090 | 24194 ft | 380 kts | 313° |
| 2026-05-07 18:33 | -54.41358 | -69.07392 | 24193 ft | 380 kts | 313° |
| 2026-05-07 18:33 | -54.39557 | -69.10639 | 24188 ft | 380 kts | 313° |
| 2026-05-07 18:34 | -54.37730 | -69.13927 | 24192 ft | 380 kts | 313° |
| 2026-05-07 18:34 | -54.35903 | -69.17209 | 24188 ft | 380 kts | 313° |
| 2026-05-07 18:34 | -54.34081 | -69.20480 | 24189 ft | 380 kts | 313° |
| 2026-05-07 18:34 | -54.32263 | -69.23738 | 24190 ft | 380 kts | 313° |
| 2026-05-07 18:35 | -54.30428 | -69.27022 | 24187 ft | 381 kts | 313° |
| 2026-05-07 18:35 | -54.28599 | -69.30293 | 24186 ft | 381 kts | 313° |
| 2026-05-07 18:35 | -54.26770 | -69.33556 | 24188 ft | 380 kts | 313° |
| 2026-05-07 18:35 | -54.24930 | -69.36836 | 24184 ft | 380 kts | 314° |
| 2026-05-07 18:36 | -54.23094 | -69.40104 | 24185 ft | 380 kts | 314° |
| 2026-05-07 18:36 | -54.21280 | -69.43328 | 24181 ft | 380 kts | 314° |
| 2026-05-07 18:36 | -54.19446 | -69.46585 | 24183 ft | 380 kts | 314° |
| 2026-05-07 18:36 | -54.17609 | -69.49841 | 24182 ft | 380 kts | 314° |
| 2026-05-07 18:37 | -54.15749 | -69.53133 | 24183 ft | 381 kts | 314° |
| 2026-05-07 18:37 | -54.13926 | -69.56356 | 24183 ft | 381 kts | 314° |
| 2026-05-07 18:37 | -54.12080 | -69.59615 | 24182 ft | 381 kts | 314° |
| 2026-05-07 18:37 | -54.10252 | -69.62838 | 24184 ft | 381 kts | 314° |
| 2026-05-07 18:38 | -54.08407 | -69.66087 | 24184 ft | 380 kts | 314° |
| 2026-05-07 18:38 | -54.06560 | -69.69334 | 24184 ft | 380 kts | 314° |
| 2026-05-07 18:38 | -54.04717 | -69.72571 | 24180 ft | 380 kts | 314° |
| 2026-05-07 18:38 | -54.02888 | -69.75778 | 24186 ft | 380 kts | 314° |
| 2026-05-07 18:39 | -54.01039 | -69.79009 | 24180 ft | 380 kts | 315° |
| 2026-05-07 18:39 | -53.98966 | -69.81714 | 24199 ft | 380 kts | 332° |
| 2026-05-07 18:39 | -53.96604 | -69.83719 | 24179 ft | 381 kts | 334° |
| 2026-05-07 18:39 | -53.94208 | -69.85686 | 24169 ft | 379 kts | 334° |
| 2026-05-07 18:40 | -53.91831 | -69.87660 | 24180 ft | 379 kts | 334° |
| 2026-05-07 18:40 | -53.89490 | -69.89634 | 24166 ft | 380 kts | 334° |
| 2026-05-07 18:40 | -53.87110 | -69.91629 | 24173 ft | 379 kts | 334° |
| 2026-05-07 18:40 | -53.84776 | -69.93569 | 23859 ft | 374 kts | 334° |
| 2026-05-07 18:41 | -53.82432 | -69.95514 | 23257 ft | 375 kts | 334° |
| 2026-05-07 18:41 | -53.80093 | -69.97461 | 22656 ft | 374 kts | 334° |
| 2026-05-07 18:41 | -53.77751 | -69.99409 | 22039 ft | 373 kts | 334° |
| 2026-05-07 18:41 | -53.75441 | -70.01324 | 21405 ft | 373 kts | 334° |
| 2026-05-07 18:42 | -53.73110 | -70.03254 | 20783 ft | 372 kts | 335° |
| 2026-05-07 18:42 | -53.70762 | -70.05196 | 20136 ft | 372 kts | 335° |
| 2026-05-07 18:42 | -53.68468 | -70.07092 | 19484 ft | 371 kts | 335° |
| 2026-05-07 18:42 | -53.66147 | -70.09008 | 18833 ft | 371 kts | 335° |
| 2026-05-07 18:43 | -53.63820 | -70.10926 | 18110 ft | 370 kts | 335° |
| 2026-05-07 18:43 | -53.61500 | -70.12835 | 17117 ft | 375 kts | 335° |
| 2026-05-07 18:43 | -53.59133 | -70.14779 | 16030 ft | 383 kts | 335° |
| 2026-05-07 18:43 | -53.56719 | -70.16763 | 15221 ft | 384 kts | 335° |
| 2026-05-07 18:44 | -53.55134 | -70.18066 | 14771 ft | 383 kts | 335° |
| 2026-05-07 18:44 | -53.51943 | -70.20678 | 13662 ft | 385 kts | 335° |
| 2026-05-07 18:44 | -53.50336 | -70.21992 | 13147 ft | 384 kts | 335° |
| 2026-05-07 18:44 | -53.47952 | -70.23941 | 12449 ft | 381 kts | 335° |
| 2026-05-07 18:45 | -53.45570 | -70.25887 | 11767 ft | 378 kts | 335° |
| 2026-05-07 18:45 | -53.43271 | -70.27762 | 11496 ft | 363 kts | 335° |
| 2026-05-07 18:45 | -53.41025 | -70.29591 | 11162 ft | 350 kts | 334° |
| 2026-05-07 18:45 | -53.38858 | -70.31352 | 10879 ft | 339 kts | 334° |
| 2026-05-07 18:46 | -53.36783 | -70.33038 | 10600 ft | 328 kts | 334° |
| 2026-05-07 18:46 | -53.34753 | -70.34686 | 10296 ft | 319 kts | 334° |
| 2026-05-07 18:46 | -53.32808 | -70.36263 | 10072 ft | 307 kts | 334° |
| 2026-05-07 18:46 | -53.30928 | -70.37786 | 9986 ft | 285 kts | 334° |
| 2026-05-07 18:47 | -53.29179 | -70.39202 | 9146 ft | 278 kts | 334° |
| 2026-05-07 18:47 | -53.27446 | -70.40602 | 8404 ft | 279 kts | 334° |
| 2026-05-07 18:47 | -53.25725 | -70.41993 | 8113 ft | 273 kts | 334° |
| 2026-05-07 18:47 | -53.24011 | -70.43376 | 7690 ft | 272 kts | 334° |
| 2026-05-07 18:48 | -53.22452 | -70.44633 | 7334 ft | 270 kts | 334° |
| 2026-05-07 18:48 | -53.20778 | -70.45982 | 6944 ft | 266 kts | 334° |
| 2026-05-07 18:48 | -53.19121 | -70.47315 | 6590 ft | 260 kts | 334° |
| 2026-05-07 18:48 | -53.17444 | -70.48665 | 6236 ft | 266 kts | 334° |
| 2026-05-07 18:49 | -53.15807 | -70.49980 | 5906 ft | 262 kts | 334° |
| 2026-05-07 18:49 | -53.14158 | -70.51304 | 5572 ft | 259 kts | 334° |
| 2026-05-07 18:49 | -53.12561 | -70.52585 | 5248 ft | 261 kts | 334° |
| 2026-05-07 18:49 | -53.10898 | -70.53918 | 4884 ft | 260 kts | 334° |
| 2026-05-07 18:50 | -53.09235 | -70.55248 | 4242 ft | 267 kts | 335° |
| 2026-05-07 18:50 | -53.07484 | -70.55995 | 3823 ft | 258 kts | 1° |
| 2026-05-07 18:50 | -53.05782 | -70.56005 | 3560 ft | 234 kts | 0° |
| 2026-05-07 18:50 | -53.04221 | -70.56123 | 3454 ft | 209 kts | 359° |
| 2026-05-07 18:51 | -53.02847 | -70.56208 | 3362 ft | 187 kts | 1° |
| 2026-05-07 18:51 | -53.01601 | -70.56266 | 3277 ft | 176 kts | 1° |
| 2026-05-07 18:51 | -53.00444 | -70.56693 | 3072 ft | 172 kts | 330° |
| 2026-05-07 18:51 | -52.99852 | -70.58323 | 2932 ft | 164 kts | 281° |
| 2026-05-07 18:52 | -52.99764 | -70.60146 | 2957 ft | 160 kts | 268° |
| 2026-05-07 18:52 | -52.99756 | -70.62016 | 2754 ft | 167 kts | 266° |
| 2026-05-07 18:52 | -52.99772 | -70.63971 | 2515 ft | 167 kts | 266° |
| 2026-05-07 18:52 | -52.99796 | -70.65786 | 2285 ft | 149 kts | 266° |
| 2026-05-07 18:53 | -52.99819 | -70.67450 | 2080 ft | 140 kts | 266° |
| 2026-05-07 18:53 | -52.99843 | -70.69062 | 1886 ft | 139 kts | 266° |
| 2026-05-07 18:53 | -52.99866 | -70.70639 | 1694 ft | 137 kts | 266° |
| 2026-05-07 18:53 | -52.99889 | -70.72209 | 1494 ft | 135 kts | 266° |
| 2026-05-07 18:54 | -52.99911 | -70.73769 | 1304 ft | 135 kts | 266° |
| 2026-05-07 18:54 | -52.99934 | -70.75328 | 1112 ft | 134 kts | 266° |
| 2026-05-07 18:54 | -52.99957 | -70.76839 | 935 ft | 134 kts | 266° |
| 2026-05-07 18:54 | -52.99980 | -70.78405 | 739 ft | 132 kts | 266° |
| 2026-05-07 18:55 | -53.00002 | -70.79935 | 564 ft | 133 kts | 265° |
| 2026-05-07 18:55 | -53.00024 | -70.81460 | 386 ft | 132 kts | 265° |
| 2026-05-07 18:55 | -53.00055 | -70.82961 | 229 ft | 129 kts | 262° |
| 2026-05-07 18:55 | -53.00081 | -70.84405 | 156 ft | 108 kts | 268° |
| 2026-05-07 18:56 | -53.00087 | -70.85220 | 151 ft | 45 kts | 269° |
| 2026-05-07 18:56 | -53.00092 | -70.85657 | 151 ft | 36 kts | 269° |
| 2026-05-07 18:56 | -53.00098 | -70.86049 | 154 ft | 33 kts | 269° |
| 2026-05-07 18:56 | -53.00119 | -70.86314 | 155 ft | 8 kts | 217° |
| 2026-05-07 18:57 | -53.00128 | -70.86319 | 155 ft | 1 kts | 167° |
| 2026-05-07 18:57 | -53.00139 | -70.86307 | 155 ft | 4 kts | 144° |
| 2026-05-07 18:57 | -53.00173 | -70.86260 | 154 ft | 9 kts | 139° |
| 2026-05-07 18:57 | -53.00227 | -70.86183 | 154 ft | 13 kts | 139° |
| 2026-05-07 18:58 | -53.00271 | -70.86054 | 153 ft | 12 kts | 92° |
| 2026-05-07 18:58 | -53.00268 | -70.85865 | 152 ft | 21 kts | 89° |
| 2026-05-07 18:58 | -53.00263 | -70.85583 | 152 ft | 28 kts | 89° |
| 2026-05-07 18:58 | -53.00261 | -70.85217 | 152 ft | 35 kts | 89° |
| 2026-05-07 18:59 | -53.00256 | -70.84804 | 152 ft | 34 kts | 98° |
| 2026-05-07 18:59 | -53.00352 | -70.84652 | 152 ft | 17 kts | 150° |
| 2026-05-07 18:59 | -53.00400 | -70.84619 | 152 ft | 1 kts | 187° |
| 2026-05-07 18:59 | -53.00402 | -70.84620 | 152 ft | 0 kts | 200° |
| 2026-05-07 19:00 | -53.00409 | -70.84625 | 152 ft | 2 kts | 205° |
| 2026-05-07 19:00 | -53.00428 | -70.84646 | 158 ft | 5 kts | 219° |
| 2026-05-07 19:00 | -53.00449 | -70.84678 | 158 ft | 0 kts | 223° |